Aviation Digital Data Service (ADDS)

Output produced by METARs form (0306 UTC 16 August 2018)
found at http://www.aviationweather.gov/adds/metars/
 
LJLJ 160300Z VRB01KT 9999 FEW060 12/12 Q1019 NOSIG
TAF LJLJ 160200Z 1603/1703 29002KT 9999 FEW060 
     BECMG 1608/1610 12005KT 
     BECMG 1618/1619 30002KT CAVOK
       
LJMB 160300Z AUTO VRB03KT 9999 NCD 16/13 Q1019
TAF LJMB 160200Z 1603/1703 36005KT CAVOK 
     BECMG 1608/1610 FEW050 
     BECMG 1618/1619 VRB02KT CAVOK
       
LJPZ 160300Z AUTO VRB03KT 9999 NCD 17/14 Q1016
TAF LJPZ 160200Z 1603/1612 12005KT CAVOK 
     BECMG 1608/1609 36008KT